Hauptseite
METAR-TAF:

METAR-TAF

Flughäfen :

Leipzig-Altenburg Airport

Altenburg, Deutschland

Breite: 50-58N, Länge: 012-30E, Höhe: 195 m

Beobachtung

Neuester Wetterbericht von vor 20 Minuten, um 13:20 UTC
Wind 12 kt aus Nordwest
Temperatur 30°C
Luftfeuchtigkeit 27%
Luftdruck 1011 hPa
Sichtweite 10 km oder mehr
keine Wolken unter 1500 m und keine Kumulonimbus oder Gewitterwolken

METAR: EDAC 171320Z 32012KT CAVOK 30/09 Q1011

Zeit: 15:40 (13:40 UTC)

Prognose

Neuester Wetterbericht von vor 2 Stunden und 40 Minuten, um 11:00 UTC
Gültige Prognose vom 17 um 12 UTC bis 17 um 21 UTC
Wind 8 kt aus Nord/Nordwest
Sichtweite 10 km oder mehr
keine Wolken unter 1500 m und keine Kumulonimbus oder Gewitterwolken
Übergehend zu
vom 17 um 17 UTC bis 17 um 19 UTC
Wind 4 kt aus West/Südwest

TAF: EDAC 171100Z 1712/1721 33008KT CAVOK BECMG 1717/1719 25004KT

Wetterbeobachtungen und Prognosen von mehr als 4000 Flughäfen (METAR und TAF Bericht).

Die verfügbaren Stationen werden durch gelbe und rote Markierungen auf der Karte dargestellt.

Führen Sie die Maus auf sie, um den Namen der Station zu sehen.

Darauf klicken, um die Beobachtung von Wetterbeobachtungen und Prognosen zu sehen.

Um die Karte zu ändern : klicken Sie auf den grünen Tasten mit einem schwarzen Kreuz Zum Vergrößern, auf den grünen Button mit einem Gedankenstrich zu verkleinern, oder auf die grünen Pfeile für benachbarte Karten.


METAR-TAF: